Cross Key, Florida
Current Conditions -  °F | °C
As of 3:58 PM on Tuesday 27 Jan 2015 (Local Time) from KHST Reporting Station
Clear Clear  
Wind Chill: 70°   Ceiling: Unl
Heat Index: 70°   Visibility: 10mi
Dew Point: 37°   Wind: 15mph
Humidity: 30%   Direction: 260°W
Pressure: 29.99"   Gusts: NA
Location:  25.2553°N, 80.3918°W
Report Text: KHST 272058Z AUTO 26013KT 10SM CLR 21/03 A2999 RMK AO2 SLP159 T02130028
Loading
Personal Weather Stations






























Interactive Weather Map New forecast layout! Learn more

10-Day Weather Forecast

Advertisements
Track Severe Weather on mobile